createdAt,value
2023-01-28T00:01:27.693Z,101954.75
2023-01-28T00:03:54.941Z,101946.09
2023-01-28T00:06:22.223Z,101944.34
2023-01-28T00:08:49.421Z,101950.34
2023-01-28T00:11:16.608Z,101950.31
2023-01-28T00:13:44.531Z,101954.66
2023-01-28T00:16:11.787Z,101946.81
2023-01-28T00:18:39.026Z,101947.69
2023-01-28T00:21:14.004Z,101947.66
2023-01-28T00:23:43.100Z,101949.31
2023-01-28T00:26:12.419Z,101957.06
2023-01-28T00:28:40.063Z,101963.84
2023-01-28T00:31:12.223Z,101967.28
2023-01-28T00:33:39.300Z,101968.94
2023-01-28T00:36:06.929Z,101969.72
2023-01-28T00:38:34.787Z,101967.09
2023-01-28T00:41:10.395Z,101959.31
2023-01-28T00:43:37.971Z,101964.47
2023-01-28T00:46:07.335Z,101961.03
2023-01-28T00:48:35.575Z,101962.78
2023-01-28T00:51:03.043Z,101973.16
2023-01-28T00:53:31.665Z,101971.50
2023-01-28T00:55:59.121Z,101973.22
2023-01-28T00:58:26.436Z,101978.44
2023-01-28T01:00:53.560Z,101974.97
2023-01-28T01:03:20.939Z,101981.88
2023-01-28T01:05:48.000Z,101977.56
2023-01-28T01:08:15.165Z,101975.81
2023-01-28T01:10:42.294Z,101978.34
2023-01-28T01:13:10.169Z,101978.34
2023-01-28T01:15:37.343Z,101974.00
2023-01-28T01:18:04.535Z,101975.72
2023-01-28T01:20:33.527Z,101975.66
2023-01-28T01:23:00.649Z,101977.34
2023-01-28T01:25:27.751Z,101979.94
2023-01-28T01:27:54.901Z,101986.81
2023-01-28T01:30:22.513Z,101980.75
2023-01-28T01:32:49.778Z,101978.16
2023-01-28T01:35:17.324Z,101983.34
2023-01-28T01:37:44.949Z,101977.34
2023-01-28T01:40:12.475Z,101973.13
2023-01-28T01:42:39.630Z,101974.84
2023-01-28T01:45:14.519Z,101975.72
2023-01-28T01:47:56.958Z,101977.47
2023-01-28T01:50:30.179Z,101985.19
2023-01-28T01:53:05.144Z,101991.22
2023-01-28T01:55:36.124Z,101992.91
2023-01-28T01:58:07.963Z,102000.72
2023-01-28T02:00:35.132Z,101997.31
2023-01-28T02:03:02.632Z,101992.22
2023-01-28T02:05:29.826Z,101987.91
2023-01-28T02:08:17.492Z,101987.06
2023-01-28T02:10:45.408Z,101990.56
2023-01-28T02:13:12.932Z,101992.31
2023-01-28T02:15:40.080Z,101988.81
2023-01-28T02:18:07.182Z,101985.41
2023-01-28T02:21:11.471Z,101978.50
2023-01-28T02:23:46.779Z,101983.72
2023-01-28T02:26:31.386Z,101990.66
2023-01-28T02:29:09.757Z,101985.56
2023-01-28T02:31:44.912Z,101991.59
2023-01-28T02:34:41.007Z,101989.91
2023-01-28T02:37:17.548Z,101989.91
2023-01-28T02:39:51.893Z,101989.94
2023-01-28T02:42:24.028Z,101993.41
2023-01-28T02:44:51.082Z,102001.19
2023-01-28T02:47:37.119Z,101994.25
2023-01-28T02:50:16.205Z,102002.00
2023-01-28T02:53:36.120Z,101992.53
2023-01-28T02:56:29.489Z,101989.09
2023-01-28T02:59:24.038Z,101993.38
2023-01-28T03:01:58.332Z,101995.09
2023-01-28T03:05:04.408Z,101991.63
2023-01-28T03:07:32.527Z,101990.78
2023-01-28T03:10:04.212Z,101996.81
2023-01-28T03:12:51.897Z,102003.75
2023-01-28T03:15:51.207Z,102002.06
2023-01-28T03:18:40.357Z,101995.19
2023-01-28T03:21:32.747Z,102001.22
2023-01-28T03:24:34.291Z,102000.34
2023-01-28T03:27:30.620Z,101999.47
2023-01-28T03:30:19.122Z,101996.88
2023-01-28T03:33:05.391Z,102008.09
2023-01-28T03:35:51.858Z,102000.31
2023-01-28T03:38:25.953Z,101999.50
2023-01-28T03:40:55.506Z,101992.59
2023-01-28T03:43:23.142Z,101997.81
2023-01-28T03:45:53.615Z,101997.00
2023-01-28T03:48:23.439Z,101992.69
2023-01-28T03:50:51.167Z,101994.44
2023-01-28T03:53:19.173Z,102000.44
2023-01-28T03:55:48.773Z,101998.75
2023-01-28T03:58:16.282Z,101994.47
2023-01-28T04:00:43.746Z,101997.06
2023-01-28T04:03:17.963Z,101993.63
2023-01-28T04:06:06.598Z,101990.19
2023-01-28T04:08:33.818Z,101990.19
2023-01-28T04:11:15.514Z,101991.91
2023-01-28T04:13:43.065Z,101989.34
2023-01-28T04:16:14.662Z,101991.94
2023-01-28T04:18:42.758Z,101998.84
2023-01-28T04:21:10.016Z,101992.84
2023-01-28T04:23:37.193Z,101999.72
2023-01-28T04:26:04.691Z,101996.28
2023-01-28T04:28:31.868Z,101995.38
2023-01-28T04:30:59.003Z,101995.41
2023-01-28T04:33:26.150Z,101997.19
2023-01-28T04:35:54.504Z,101995.44
2023-01-28T04:38:21.672Z,101998.91
2023-01-28T04:40:52.693Z,101996.31
2023-01-28T04:43:20.277Z,101992.84
2023-01-28T04:45:48.206Z,101994.63
2023-01-28T04:48:16.877Z,101998.03
2023-01-28T04:50:44.352Z,101989.44
2023-01-28T04:53:12.085Z,101992.88
2023-01-28T04:55:39.218Z,101991.19
2023-01-28T04:58:06.322Z,101981.69
2023-01-28T05:00:33.460Z,101987.72
2023-01-28T05:03:00.578Z,101997.25
2023-01-28T05:05:27.719Z,101988.63
2023-01-28T05:07:55.984Z,101995.53
2023-01-28T05:10:23.857Z,101998.16
2023-01-28T05:12:50.995Z,102003.28
2023-01-28T05:15:18.915Z,102005.03
2023-01-28T05:17:46.524Z,102007.63
2023-01-28T05:20:15.079Z,102012.81
2023-01-28T05:22:42.692Z,102017.16
2023-01-28T05:25:10.208Z,102019.78
2023-01-28T05:27:37.329Z,102023.22
2023-01-28T05:30:06.560Z,102022.31
2023-01-28T05:32:33.806Z,102032.72
2023-01-28T05:35:00.975Z,102017.19
2023-01-28T05:37:28.122Z,102017.22
2023-01-28T05:39:55.329Z,102016.38
2023-01-28T05:42:22.555Z,102018.94
2023-01-28T05:44:49.741Z,102015.47
2023-01-28T05:47:16.919Z,102007.69
2023-01-28T05:49:44.105Z,102011.16
2023-01-28T05:52:11.275Z,102016.38
2023-01-28T05:54:38.452Z,102022.41
2023-01-28T05:57:05.577Z,102020.69
2023-01-28T05:59:32.699Z,102017.25
2023-01-28T06:01:59.993Z,102017.25
2023-01-28T06:04:27.258Z,102018.09
2023-01-28T06:06:54.408Z,102017.25
2023-01-28T06:09:21.474Z,102010.34
2023-01-28T06:11:50.259Z,102021.59
2023-01-28T06:14:17.357Z,102024.19
2023-01-28T06:16:44.582Z,102017.28
2023-01-28T06:19:11.780Z,102022.50
2023-01-28T06:21:39.016Z,102031.13
2023-01-28T06:24:06.289Z,102025.97
2023-01-28T06:26:33.428Z,102025.09
2023-01-28T06:29:00.547Z,102034.56
2023-01-28T06:31:27.690Z,102021.59
2023-01-28T06:33:55.357Z,102028.53
2023-01-28T06:36:22.581Z,102032.84
2023-01-28T06:38:49.715Z,102030.25
2023-01-28T06:41:16.835Z,102032.88
2023-01-28T06:43:44.095Z,102035.47
2023-01-28T06:46:11.316Z,102024.25
2023-01-28T06:48:38.470Z,102033.75
2023-01-28T06:51:05.816Z,102035.44
2023-01-28T06:53:32.913Z,102037.97
2023-01-28T06:56:00.139Z,102037.16
2023-01-28T06:58:27.278Z,102027.66
2023-01-28T07:00:54.452Z,102031.13
2023-01-28T07:03:21.585Z,102040.66
2023-01-28T07:05:48.732Z,102040.66
2023-01-28T07:08:15.901Z,102039.78
2023-01-28T07:10:43.944Z,102038.91
2023-01-28T07:13:11.173Z,102042.38
2023-01-28T07:15:38.518Z,102043.22
2023-01-28T07:18:05.713Z,102049.31
2023-01-28T07:20:32.815Z,102054.50
2023-01-28T07:22:59.922Z,102051.91
2023-01-28T07:25:27.012Z,102050.16
2023-01-28T07:27:54.101Z,102044.94
2023-01-28T07:30:21.321Z,102050.16
2023-01-28T07:32:56.046Z,102052.75
2023-01-28T07:35:23.357Z,102051.06
2023-01-28T07:37:58.197Z,102043.31
2023-01-28T07:40:25.935Z,102039.84
2023-01-28T07:42:55.237Z,102043.28
2023-01-28T07:45:23.914Z,102046.78
2023-01-28T07:47:58.314Z,102052.81
2023-01-28T07:50:26.030Z,102050.22
2023-01-28T07:52:53.111Z,102051.06
2023-01-28T07:55:20.290Z,102053.69
2023-01-28T07:58:07.049Z,102055.41
2023-01-28T08:00:35.991Z,102052.84
2023-01-28T08:03:05.939Z,102049.38
2023-01-28T08:05:45.030Z,102057.16
2023-01-28T08:08:12.438Z,102053.72
2023-01-28T08:10:39.990Z,102062.38
2023-01-28T08:13:07.471Z,102063.22
2023-01-28T08:15:35.504Z,102072.75
2023-01-28T08:18:04.001Z,102070.16
2023-01-28T08:20:31.222Z,102069.31
2023-01-28T08:23:26.779Z,102082.28
2023-01-28T08:25:54.151Z,102069.34
2023-01-28T08:28:21.964Z,102068.47
2023-01-28T08:30:49.141Z,102065.00
2023-01-28T08:33:17.575Z,102070.22
2023-01-28T08:35:44.940Z,102080.56
2023-01-28T08:38:13.525Z,102090.94
2023-01-28T08:40:40.753Z,102097.88
2023-01-28T08:43:07.883Z,102094.41
2023-01-28T08:45:35.041Z,102090.97
2023-01-28T08:48:04.704Z,102096.16
2023-01-28T08:50:35.886Z,102084.06
2023-01-28T08:53:08.113Z,102084.09
2023-01-28T08:55:35.275Z,102102.22
2023-01-28T08:58:07.254Z,102107.44
2023-01-28T09:00:35.204Z,102099.63
2023-01-28T09:03:04.702Z,102095.31
2023-01-28T09:05:34.836Z,102108.28
2023-01-28T09:08:10.146Z,102106.53
2023-01-28T09:10:37.790Z,102107.47
2023-01-28T09:13:09.222Z,102114.38
2023-01-28T09:15:36.343Z,102113.50
2023-01-28T09:18:04.294Z,102115.22
2023-01-28T09:20:33.031Z,102123.88
2023-01-28T09:23:01.303Z,102126.50
2023-01-28T09:25:28.529Z,102123.06
2023-01-28T09:27:55.668Z,102125.66
2023-01-28T09:30:22.982Z,102129.97
2023-01-28T09:32:51.494Z,102128.25
2023-01-28T09:35:19.378Z,102134.31
2023-01-28T09:37:47.183Z,102139.50
2023-01-28T09:40:20.169Z,102129.13
2023-01-28T09:42:59.256Z,102132.59
2023-01-28T09:45:42.599Z,102134.34
2023-01-28T09:48:15.459Z,102129.19
2023-01-28T09:50:46.462Z,102135.22
2023-01-28T09:53:13.722Z,102132.66
2023-01-28T09:55:45.967Z,102135.25
2023-01-28T09:58:40.275Z,102146.47
2023-01-28T10:01:28.032Z,102138.69
2023-01-28T10:04:23.321Z,102146.50
2023-01-28T10:07:22.800Z,102140.44
2023-01-28T10:09:52.481Z,102137.84
2023-01-28T10:12:32.400Z,102135.25
2023-01-28T10:15:11.689Z,102127.47
2023-01-28T10:17:45.358Z,102125.72
2023-01-28T10:20:12.420Z,102128.31
2023-01-28T10:22:43.326Z,102127.50
2023-01-28T10:25:22.116Z,102133.53
2023-01-28T10:27:50.879Z,102130.06
2023-01-28T10:30:28.164Z,102125.72
2023-01-28T10:33:16.956Z,102124.88
2023-01-28T10:35:44.412Z,102124.03
2023-01-28T10:38:14.788Z,102111.03
2023-01-28T10:40:42.969Z,102114.50
2023-01-28T10:43:10.166Z,102116.25
2023-01-28T10:45:59.842Z,102117.97
2023-01-28T10:48:30.530Z,102121.41
2023-01-28T10:51:01.883Z,102117.94
2023-01-28T10:53:39.993Z,102125.72
2023-01-28T10:56:10.028Z,102117.06
2023-01-28T10:58:48.263Z,102120.53
2023-01-28T11:01:15.459Z,102115.34
2023-01-28T11:03:54.429Z,102118.81
2023-01-28T11:06:26.752Z,102117.09
2023-01-28T11:08:54.125Z,102116.25
2023-01-28T11:11:26.590Z,102112.78
2023-01-28T11:13:55.566Z,102110.16
2023-01-28T11:16:22.777Z,102107.56
2023-01-28T11:18:54.884Z,102113.66
2023-01-28T11:21:25.518Z,102115.38
2023-01-28T11:24:02.476Z,102110.16
2023-01-28T11:26:33.018Z,102103.25
2023-01-28T11:29:00.276Z,102110.19
2023-01-28T11:31:27.822Z,102103.25
2023-01-28T11:34:02.216Z,102098.94
2023-01-28T11:36:33.814Z,102106.72
2023-01-28T11:39:19.433Z,102101.50
2023-01-28T11:41:47.191Z,102092.00
2023-01-28T11:44:27.514Z,102091.13
2023-01-28T11:47:09.550Z,102084.19
2023-01-28T11:49:40.695Z,102085.06
2023-01-28T11:52:17.888Z,102090.25
2023-01-28T11:54:57.025Z,102084.19
2023-01-28T11:57:27.180Z,102070.34
2023-01-28T12:00:15.538Z,102068.59
2023-01-28T12:02:52.301Z,102070.31
2023-01-28T12:05:41.200Z,102079.84
2023-01-28T12:08:21.023Z,102077.28
2023-01-28T12:11:01.329Z,102070.34
2023-01-28T12:13:40.386Z,102074.69
2023-01-28T12:16:17.926Z,102072.09
2023-01-28T12:18:47.998Z,102069.50
2023-01-28T12:21:40.991Z,102065.16
2023-01-28T12:24:18.099Z,102069.50
2023-01-28T12:26:52.932Z,102063.41
2023-01-28T12:29:35.021Z,102068.59
2023-01-28T12:32:24.942Z,102078.97
2023-01-28T12:35:24.956Z,102064.28
2023-01-28T12:38:28.222Z,102072.03
2023-01-28T12:40:58.589Z,102067.72
2023-01-28T12:43:40.667Z,102066.88
2023-01-28T12:46:33.133Z,102062.53
2023-01-28T12:49:08.024Z,102049.56
2023-01-28T12:52:02.128Z,102054.75
2023-01-28T12:54:35.718Z,102047.81
2023-01-28T12:57:03.390Z,102050.44
2023-01-28T12:59:34.894Z,102057.34
2023-01-28T13:02:15.051Z,102056.47
2023-01-28T13:04:52.698Z,102045.22
2023-01-28T13:07:44.126Z,102048.69
2023-01-28T13:10:32.782Z,102037.44
2023-01-28T13:13:00.257Z,102025.31
2023-01-28T13:15:27.633Z,102022.75
2023-01-28T13:17:55.929Z,102026.22
2023-01-28T13:20:46.843Z,102021.88
2023-01-28T13:23:27.110Z,102021.03
2023-01-28T13:25:55.263Z,102021.00
2023-01-28T13:28:29.285Z,102021.88
2023-01-28T13:31:05.497Z,102019.25
2023-01-28T13:33:36.713Z,102023.56
2023-01-28T13:36:11.135Z,102016.63
2023-01-28T13:38:38.819Z,102025.25
2023-01-28T13:41:06.536Z,102014.88
2023-01-28T13:43:42.132Z,102010.56
2023-01-28T13:46:27.916Z,102011.44
2023-01-28T13:48:56.523Z,102016.63
2023-01-28T13:51:35.830Z,102024.41
2023-01-28T13:54:15.236Z,102018.38
2023-01-28T13:57:03.743Z,102015.78
2023-01-28T13:59:55.032Z,102002.84
2023-01-28T14:03:07.093Z,101998.53
2023-01-28T14:06:02.935Z,102000.25
2023-01-28T14:08:51.747Z,102005.44
2023-01-28T14:11:33.754Z,102001.09
2023-01-28T14:14:23.687Z,101997.63
2023-01-28T14:16:52.747Z,101985.53
2023-01-28T14:19:27.294Z,101985.56
2023-01-28T14:21:54.837Z,101986.41
2023-01-28T14:24:22.333Z,101983.81
2023-01-28T14:27:32.806Z,101978.63
2023-01-28T14:30:06.836Z,101986.41
2023-01-28T14:32:34.485Z,101989.00
2023-01-28T14:35:07.719Z,101988.13
2023-01-28T14:37:35.320Z,101999.38
2023-01-28T14:40:16.205Z,102000.25
2023-01-28T14:42:45.932Z,102008.03
2023-01-28T14:45:33.916Z,102004.59
2023-01-28T14:48:22.598Z,102015.81
2023-01-28T14:51:24.926Z,102009.75
2023-01-28T14:54:09.901Z,102011.50
2023-01-28T14:57:02.067Z,102011.50
2023-01-28T14:59:48.226Z,102018.41
2023-01-28T15:02:22.272Z,102011.47
2023-01-28T15:04:50.464Z,102014.06
2023-01-28T15:07:17.553Z,102013.22
2023-01-28T15:09:44.815Z,102016.69
2023-01-28T15:12:12.475Z,102021.84
2023-01-28T15:14:40.256Z,102009.72
2023-01-28T15:17:19.693Z,102022.69
2023-01-28T15:19:47.391Z,102017.50
2023-01-28T15:22:15.657Z,102003.69
2023-01-28T15:24:45.837Z,102006.28
2023-01-28T15:27:18.929Z,102006.31
2023-01-28T15:29:57.429Z,102024.47
2023-01-28T15:32:28.116Z,102010.59
2023-01-28T15:34:55.302Z,102008.00
2023-01-28T15:37:22.899Z,102006.25
2023-01-28T15:40:00.619Z,102010.59
2023-01-28T15:42:29.380Z,102010.56
2023-01-28T15:44:59.558Z,102018.38
2023-01-28T15:47:29.838Z,102019.22
2023-01-28T15:50:03.414Z,102021.84
2023-01-28T15:52:35.822Z,102016.63
2023-01-28T15:55:04.474Z,102023.53
2023-01-28T15:57:34.201Z,102025.25
2023-01-28T16:00:11.734Z,102030.47
2023-01-28T16:02:52.426Z,102035.63
2023-01-28T16:05:32.299Z,102044.25
2023-01-28T16:08:03.089Z,102033.03
2023-01-28T16:10:30.353Z,102037.34
2023-01-28T16:13:20.099Z,102043.41
2023-01-28T16:15:52.185Z,102048.59
2023-01-28T16:18:30.224Z,102042.56
2023-01-28T16:20:58.651Z,102027.84
2023-01-28T16:23:27.396Z,102033.84
2023-01-28T16:26:04.241Z,102034.75
2023-01-28T16:28:32.603Z,102034.72
2023-01-28T16:31:00.261Z,102017.47
2023-01-28T16:33:27.528Z,102009.66
2023-01-28T16:36:08.002Z,102015.72
2023-01-28T16:38:35.823Z,102026.09
2023-01-28T16:41:02.908Z,102032.97
2023-01-28T16:43:30.159Z,102027.78
2023-01-28T16:45:57.289Z,102037.28
2023-01-28T16:48:24.489Z,102041.63
2023-01-28T16:50:51.602Z,102038.16
2023-01-28T16:53:28.248Z,102046.78
2023-01-28T16:55:55.770Z,102046.78
2023-01-28T16:58:25.087Z,102051.13
2023-01-28T17:00:53.035Z,102047.66
2023-01-28T17:03:20.300Z,102047.66
2023-01-28T17:05:47.384Z,102055.44
2023-01-28T17:08:14.575Z,102058.03
2023-01-28T17:10:41.660Z,102067.50
2023-01-28T17:13:08.729Z,102079.63
2023-01-28T17:15:36.590Z,102078.75
2023-01-28T17:18:03.788Z,102078.75
2023-01-28T17:20:30.951Z,102070.09
2023-01-28T17:22:58.052Z,102080.44
2023-01-28T17:25:25.238Z,102079.53
2023-01-28T17:27:52.355Z,102100.31
2023-01-28T17:30:20.442Z,102105.47
2023-01-28T17:32:47.554Z,102107.19
2023-01-28T17:35:15.749Z,102091.63
2023-01-28T17:37:43.183Z,102108.91
2023-01-28T17:40:12.474Z,102114.97
2023-01-28T17:42:39.598Z,102104.59
2023-01-28T17:45:06.965Z,102089.91
2023-01-28T17:47:34.073Z,102090.78
2023-01-28T17:50:01.467Z,102092.47
2023-01-28T17:52:29.263Z,102090.72
2023-01-28T17:54:56.336Z,102084.66
2023-01-28T17:57:23.550Z,102072.56
2023-01-28T17:59:50.686Z,102071.69
2023-01-28T18:02:18.087Z,102087.25
2023-01-28T18:04:45.235Z,102080.34
2023-01-28T18:07:12.490Z,102084.63
2023-01-28T18:09:40.781Z,102094.94
2023-01-28T18:12:09.853Z,102101.84
2023-01-28T18:14:37.728Z,102093.19
2023-01-28T18:17:05.673Z,102094.03
2023-01-28T18:19:33.125Z,102088.81
2023-01-28T18:22:00.433Z,102081.84
2023-01-28T18:24:28.888Z,102077.53
2023-01-28T18:27:00.677Z,102080.06
2023-01-28T18:29:28.825Z,102084.38
2023-01-28T18:31:56.831Z,102071.47
2023-01-28T18:34:25.936Z,102078.34
2023-01-28T18:36:53.347Z,102081.78
2023-01-28T18:39:20.991Z,102080.94
2023-01-28T18:41:48.188Z,102083.50
2023-01-28T18:44:15.675Z,102086.06
2023-01-28T18:46:43.064Z,102090.38
2023-01-28T18:49:10.575Z,102086.03
2023-01-28T18:51:38.606Z,102069.63
2023-01-28T18:54:08.022Z,102079.09
2023-01-28T18:56:36.660Z,102092.91
2023-01-28T18:59:05.816Z,102093.72
2023-01-28T19:01:34.448Z,102092.00
2023-01-28T19:04:02.423Z,102092.00
2023-01-28T19:06:30.913Z,102075.59
2023-01-28T19:09:08.255Z,102063.56
2023-01-28T19:11:35.991Z,102073.06
2023-01-28T19:14:03.507Z,102072.19
2023-01-28T19:16:30.741Z,102071.31
2023-01-28T19:18:59.976Z,102070.47
2023-01-28T19:21:28.526Z,102079.13
2023-01-28T19:23:57.795Z,102074.81
2023-01-28T19:27:39.984Z,102079.09
2023-01-28T19:30:34.777Z,102073.06
2023-01-28T19:33:02.427Z,102067.03
2023-01-28T19:35:29.586Z,102062.72
2023-01-28T19:37:56.679Z,102071.38
2023-01-28T19:40:24.154Z,102080.00
2023-01-28T19:42:54.462Z,102068.81
2023-01-28T19:45:21.731Z,102076.53
2023-01-28T19:47:48.958Z,102076.50
2023-01-28T19:50:16.671Z,102072.19
2023-01-28T19:52:43.719Z,102083.44
2023-01-28T19:55:10.958Z,102092.06
2023-01-28T19:57:38.537Z,102084.25
2023-01-28T20:00:06.679Z,102089.44
2023-01-28T20:02:33.835Z,102092.00
2023-01-28T20:05:01.404Z,102100.63
2023-01-28T20:07:28.664Z,102103.22
2023-01-28T20:09:55.775Z,102110.13
2023-01-28T20:12:22.993Z,102105.81
2023-01-28T20:14:51.039Z,102113.56
2023-01-28T20:17:18.788Z,102117.84
2023-01-28T20:19:46.041Z,102108.41
2023-01-28T20:22:13.533Z,102100.59
2023-01-28T20:24:40.671Z,102097.97
2023-01-28T20:27:07.817Z,102094.50
2023-01-28T20:29:34.943Z,102085.88
2023-01-28T20:32:16.286Z,102083.34
2023-01-28T20:34:45.672Z,102074.63
2023-01-28T20:37:13.182Z,102074.63
2023-01-28T20:39:40.240Z,102066.88
2023-01-28T20:42:09.302Z,102073.72
2023-01-28T20:44:36.563Z,102074.50
2023-01-28T20:47:03.709Z,102082.28
2023-01-28T20:49:30.775Z,102090.94
2023-01-28T20:51:58.726Z,102086.59
2023-01-28T20:54:25.829Z,102078.78
2023-01-28T20:56:53.248Z,102084.00
2023-01-28T20:59:20.735Z,102084.00
2023-01-28T21:01:47.956Z,102076.28
2023-01-28T21:04:17.069Z,102082.28
2023-01-28T21:06:44.252Z,102084.84
2023-01-28T21:09:11.418Z,102091.75
2023-01-28T21:11:38.555Z,102078.78
2023-01-28T21:14:05.656Z,102080.50
2023-01-28T21:16:32.824Z,102078.72
2023-01-28T21:18:59.942Z,102069.22
2023-01-28T21:21:28.773Z,102076.16
2023-01-28T21:23:59.380Z,102069.25
2023-01-28T21:26:27.730Z,102057.97
2023-01-28T21:28:56.072Z,102053.66
2023-01-28T21:31:25.651Z,102059.63
2023-01-28T21:33:57.332Z,102055.31
2023-01-28T21:36:25.471Z,102057.88
2023-01-28T21:38:58.535Z,102059.59
2023-01-28T21:41:26.315Z,102057.88
2023-01-28T21:43:54.961Z,102059.59
2023-01-28T21:46:23.497Z,102066.50
2023-01-28T21:49:01.649Z,102057.88
2023-01-28T21:51:35.651Z,102063.94
2023-01-28T21:54:13.156Z,102055.28
2023-01-28T21:56:42.395Z,102056.13
2023-01-28T21:59:28.419Z,102062.09
2023-01-28T22:02:04.269Z,102054.34
2023-01-28T22:04:32.661Z,102045.75
2023-01-28T22:07:00.315Z,102044.94
2023-01-28T22:09:28.866Z,102045.78
2023-01-28T22:11:56.054Z,102045.72
2023-01-28T22:14:23.238Z,102043.16
2023-01-28T22:16:50.730Z,102036.19
2023-01-28T22:19:18.199Z,102026.69
2023-01-28T22:21:46.663Z,102030.09
2023-01-28T22:24:16.299Z,102030.97
2023-01-28T22:26:44.441Z,102036.13
2023-01-28T22:29:12.867Z,102033.56
2023-01-28T22:31:40.184Z,102024.91
2023-01-28T22:34:07.308Z,102034.44
2023-01-28T22:36:34.899Z,102034.50
2023-01-28T22:39:03.312Z,102031.91
2023-01-28T22:41:30.551Z,102031.06
2023-01-28T22:43:57.837Z,102031.09
2023-01-28T22:46:25.378Z,102030.28
2023-01-28T22:48:52.809Z,102028.47
2023-01-28T22:51:25.252Z,102028.47
2023-01-28T22:53:52.686Z,102021.56
2023-01-28T22:56:21.877Z,102019.84
2023-01-28T22:58:54.928Z,102022.47
2023-01-28T23:01:22.212Z,102031.09
2023-01-28T23:03:50.558Z,102032.91
2023-01-28T23:06:20.969Z,102020.84
2023-01-28T23:08:48.346Z,102017.34
2023-01-28T23:11:24.984Z,102013.91
2023-01-28T23:14:12.328Z,102009.56
2023-01-28T23:16:57.814Z,102006.13
2023-01-28T23:19:43.365Z,102000.94
2023-01-28T23:22:34.943Z,101996.63
2023-01-28T23:25:02.071Z,101996.66
2023-01-28T23:27:29.201Z,102001.84
2023-01-28T23:29:56.333Z,101988.91
2023-01-28T23:32:23.547Z,101988.94
2023-01-28T23:34:50.679Z,101993.22
2023-01-28T23:37:17.884Z,101979.41
2023-01-28T23:39:45.007Z,101968.19
2023-01-28T23:42:17.038Z,101966.47
2023-01-28T23:44:44.503Z,101975.16
2023-01-28T23:47:11.781Z,101976.00
2023-01-28T23:49:39.282Z,101971.66
2023-01-28T23:52:07.120Z,101960.56
2023-01-28T23:54:34.543Z,101957.06
2023-01-28T23:57:03.145Z,101953.66
2023-01-28T23:59:30.378Z,101952.84
